createdAt,value
2023-04-13T00:02:54.227Z,99.90
2023-04-13T00:05:42.520Z,99.90
2023-04-13T00:08:31.716Z,99.90
2023-04-13T00:11:19.719Z,99.90
2023-04-13T00:14:07.786Z,99.90
2023-04-13T00:16:56.842Z,99.90
2023-04-13T00:19:48.179Z,99.90
2023-04-13T00:22:37.137Z,99.90
2023-04-13T00:25:25.263Z,99.90
2023-04-13T00:28:13.295Z,99.90
2023-04-13T00:31:01.989Z,99.90
2023-04-13T00:33:50.021Z,99.90
2023-04-13T00:36:39.403Z,99.90
2023-04-13T00:39:31.330Z,99.90
2023-04-13T00:42:19.891Z,99.90
2023-04-13T00:45:09.570Z,99.90
2023-04-13T00:47:58.089Z,99.90
2023-04-13T00:50:46.307Z,99.90
2023-04-13T00:53:35.726Z,99.90
2023-04-13T00:56:27.185Z,99.90
2023-04-13T00:59:15.309Z,99.90
2023-04-13T01:02:05.552Z,99.90
2023-04-13T01:04:54.793Z,99.90
2023-04-13T01:07:48.674Z,99.90
2023-04-13T01:10:40.543Z,99.90
2023-04-13T01:13:31.913Z,99.90
2023-04-13T01:16:20.974Z,99.90
2023-04-13T01:19:11.349Z,99.90
2023-04-13T01:21:59.840Z,99.90
2023-04-13T01:24:55.778Z,99.90
2023-04-13T01:27:47.160Z,99.90
2023-04-13T01:30:36.214Z,99.90
2023-04-13T01:33:25.455Z,99.90
2023-04-13T01:36:14.508Z,99.90
2023-04-13T01:39:02.504Z,99.90
2023-04-13T01:41:50.870Z,99.90
2023-04-13T01:44:40.312Z,99.90
2023-04-13T01:47:28.934Z,99.90
2023-04-13T01:50:25.598Z,99.90
2023-04-13T01:53:16.318Z,99.90
2023-04-13T01:56:05.134Z,99.90
2023-04-13T01:58:56.210Z,99.90
2023-04-13T02:01:45.748Z,99.90
2023-04-13T02:04:34.060Z,99.90
2023-04-13T02:07:22.167Z,99.90
2023-04-13T02:10:10.959Z,99.90
2023-04-13T02:12:59.194Z,99.90
2023-04-13T02:15:47.856Z,99.90
2023-04-13T02:18:37.473Z,99.90
2023-04-13T02:21:25.828Z,99.90
2023-04-13T02:24:16.985Z,99.90
2023-04-13T02:27:05.514Z,99.90
2023-04-13T02:29:53.610Z,99.90
2023-04-13T02:32:42.461Z,99.90
2023-04-13T02:35:32.641Z,99.90
2023-04-13T02:38:21.391Z,99.90
2023-04-13T02:41:09.429Z,99.90
2023-04-13T02:43:57.745Z,99.90
2023-04-13T02:46:46.021Z,99.90
2023-04-13T02:49:34.916Z,99.90
2023-04-13T02:52:24.283Z,99.90
2023-04-13T02:55:13.007Z,99.90
2023-04-13T02:58:01.104Z,99.90
2023-04-13T03:00:49.985Z,99.90
2023-04-13T03:03:38.745Z,99.90
2023-04-13T03:06:26.753Z,99.90
2023-04-13T03:09:16.226Z,99.90
2023-04-13T03:12:04.404Z,99.90
2023-04-13T03:14:52.459Z,99.90
2023-04-13T03:17:41.497Z,99.90
2023-04-13T03:20:29.689Z,99.90
2023-04-13T03:23:17.765Z,99.90
2023-04-13T03:26:07.653Z,99.90
2023-04-13T03:28:55.839Z,99.90
2023-04-13T03:31:43.905Z,99.90
2023-04-13T03:34:31.972Z,99.90
2023-04-13T03:37:20.037Z,99.90
2023-04-13T03:40:10.350Z,99.90
2023-04-13T03:42:59.727Z,99.90
2023-04-13T03:45:47.842Z,99.90
2023-04-13T03:48:35.996Z,99.90
2023-04-13T03:51:24.397Z,99.90
2023-04-13T03:54:12.443Z,99.90
2023-04-13T03:57:03.471Z,99.90
2023-04-13T03:59:52.799Z,99.90
2023-04-13T04:02:40.993Z,99.90
2023-04-13T04:05:29.109Z,99.90
2023-04-13T04:08:17.121Z,99.90
2023-04-13T04:11:05.666Z,99.90
2023-04-13T04:13:53.688Z,99.90
2023-04-13T04:16:43.119Z,99.90
2023-04-13T04:19:31.502Z,99.90
2023-04-13T04:22:19.571Z,99.90
2023-04-13T04:25:07.766Z,99.90
2023-04-13T04:27:57.750Z,99.90
2023-04-13T04:30:53.928Z,99.90
2023-04-13T04:33:43.327Z,99.90
2023-04-13T04:36:31.347Z,99.90
2023-04-13T04:39:22.248Z,99.90
2023-04-13T04:42:10.932Z,99.90
2023-04-13T04:44:59.146Z,99.90
2023-04-13T04:47:50.261Z,99.90
2023-04-13T04:50:39.788Z,99.90
2023-04-13T04:53:27.844Z,99.90
2023-04-13T04:56:16.085Z,99.90
2023-04-13T04:59:04.176Z,99.90
2023-04-13T05:01:52.302Z,99.90
2023-04-13T05:04:41.828Z,99.90
2023-04-13T05:07:31.356Z,99.90
2023-04-13T05:10:19.544Z,99.90
2023-04-13T05:13:08.450Z,99.90
2023-04-13T05:15:56.662Z,99.90
2023-04-13T05:18:45.205Z,99.90
2023-04-13T05:21:33.773Z,99.90
2023-04-13T05:24:23.135Z,99.90
2023-04-13T05:27:11.852Z,99.90
2023-04-13T05:29:59.938Z,99.90
2023-04-13T05:32:48.022Z,99.90
2023-04-13T05:35:37.495Z,99.90
2023-04-13T05:38:25.569Z,99.90
2023-04-13T05:41:14.953Z,99.90
2023-04-13T05:44:03.016Z,99.90
2023-04-13T05:46:51.523Z,99.90
2023-04-13T05:49:39.554Z,99.90
2023-04-13T05:52:27.786Z,99.90
2023-04-13T05:55:16.400Z,99.90
2023-04-13T05:58:05.793Z,99.90
2023-04-13T06:00:53.984Z,99.90
2023-04-13T06:03:42.273Z,99.90
2023-04-13T06:06:30.602Z,99.90
2023-04-13T06:09:19.083Z,99.90
2023-04-13T06:12:08.007Z,99.90
2023-04-13T06:14:57.750Z,99.90
2023-04-13T06:17:45.918Z,99.90
2023-04-13T06:20:34.842Z,99.90
2023-04-13T06:23:22.976Z,99.90
2023-04-13T06:26:11.854Z,99.90
2023-04-13T06:29:00.564Z,99.90
2023-04-13T06:31:50.168Z,99.90
2023-04-13T06:34:38.323Z,99.90
2023-04-13T06:37:26.352Z,99.90
2023-04-13T06:40:15.868Z,99.90
2023-04-13T06:43:03.935Z,99.90
2023-04-13T06:45:58.433Z,99.90
2023-04-13T06:48:47.836Z,99.90
2023-04-13T06:51:36.085Z,99.90
2023-04-13T06:54:24.548Z,99.90
2023-04-13T06:57:13.406Z,99.90
2023-04-13T07:00:01.510Z,99.90
2023-04-13T07:02:49.670Z,99.90
2023-04-13T07:05:39.755Z,99.90
2023-04-13T07:08:28.212Z,99.90
2023-04-13T07:11:16.283Z,99.90
2023-04-13T07:14:04.797Z,99.90
2023-04-13T07:16:52.804Z,99.90
2023-04-13T07:19:44.934Z,99.90
2023-04-13T07:22:35.270Z,99.90
2023-04-13T07:25:23.522Z,99.90
2023-04-13T07:28:11.598Z,99.90
2023-04-13T07:30:59.722Z,99.90
2023-04-13T07:33:47.782Z,99.90
2023-04-13T07:36:36.196Z,99.90
2023-04-13T07:39:26.348Z,99.90
2023-04-13T07:42:14.344Z,99.90
2023-04-13T07:45:02.399Z,99.90
2023-04-13T07:47:50.579Z,99.90
2023-04-13T07:50:41.085Z,99.90
2023-04-13T07:53:29.040Z,99.90
2023-04-13T07:56:18.824Z,99.90
2023-04-13T07:59:06.816Z,99.90
2023-04-13T08:01:54.860Z,99.90
2023-04-13T08:04:44.875Z,99.90
2023-04-13T08:07:32.997Z,99.90
2023-04-13T08:10:20.991Z,99.90
2023-04-13T08:13:10.348Z,99.90
2023-04-13T08:16:00.323Z,99.90
2023-04-13T08:18:48.472Z,99.90
2023-04-13T08:21:38.630Z,99.90
2023-04-13T08:24:26.740Z,99.90
2023-04-13T08:27:15.028Z,99.90
2023-04-13T08:30:07.661Z,99.90
2023-04-13T08:32:55.847Z,99.90
2023-04-13T08:35:44.250Z,99.90
2023-04-13T08:38:36.738Z,99.90
2023-04-13T08:41:25.351Z,99.90
2023-04-13T08:44:13.914Z,99.90
2023-04-13T08:47:04.932Z,99.90
2023-04-13T08:49:53.217Z,99.90
2023-04-13T08:52:41.348Z,99.90
2023-04-13T08:55:29.420Z,99.90
2023-04-13T08:58:19.792Z,99.90
2023-04-13T09:01:08.403Z,99.90
2023-04-13T09:04:08.298Z,99.90
2023-04-13T09:06:56.778Z,99.90
2023-04-13T09:09:45.856Z,99.90
2023-04-13T09:12:34.255Z,99.90
2023-04-13T09:15:23.339Z,99.90
2023-04-13T09:18:12.774Z,99.90
2023-04-13T09:21:02.265Z,99.90
2023-04-13T09:23:53.886Z,99.90
2023-04-13T09:26:42.467Z,99.90
2023-04-13T09:29:30.484Z,99.90
2023-04-13T09:32:22.713Z,99.90
2023-04-13T09:35:11.654Z,99.90
2023-04-13T09:38:01.047Z,99.90
2023-04-13T09:40:49.402Z,99.90
2023-04-13T09:43:37.650Z,99.90
2023-04-13T09:46:25.993Z,99.90
2023-04-13T09:49:14.104Z,99.90
2023-04-13T09:52:02.204Z,99.90
2023-04-13T09:54:52.244Z,99.90
2023-04-13T09:57:40.290Z,99.90
2023-04-13T10:00:28.407Z,99.90
2023-04-13T10:03:19.075Z,99.90
2023-04-13T10:06:08.646Z,99.90
2023-04-13T10:08:56.654Z,99.90
2023-04-13T10:11:47.654Z,99.90
2023-04-13T10:14:37.078Z,99.90
2023-04-13T10:17:36.124Z,99.90
2023-04-13T10:20:27.232Z,99.90
2023-04-13T10:23:16.281Z,99.90
2023-04-13T10:26:04.931Z,99.90
2023-04-13T10:28:54.664Z,99.90
2023-04-13T10:31:43.192Z,99.90
2023-04-13T10:34:31.923Z,99.90
2023-04-13T10:37:21.448Z,99.90
2023-04-13T10:40:10.705Z,99.90
2023-04-13T10:42:58.760Z,99.90
2023-04-13T10:45:48.178Z,99.90
2023-04-13T10:48:36.486Z,99.90
2023-04-13T10:51:24.570Z,99.90
2023-04-13T10:54:13.741Z,99.90
2023-04-13T10:57:03.293Z,99.90
2023-04-13T10:59:58.614Z,99.90
2023-04-13T11:02:49.973Z,99.90
2023-04-13T11:05:38.487Z,99.90
2023-04-13T11:08:28.018Z,99.90
2023-04-13T11:11:25.442Z,99.90
2023-04-13T11:14:21.431Z,99.90
2023-04-13T11:17:14.302Z,99.90
2023-04-13T11:20:10.175Z,99.90
2023-04-13T11:22:58.381Z,99.90
2023-04-13T11:25:54.836Z,99.90
2023-04-13T11:28:43.670Z,99.90
2023-04-13T11:31:39.042Z,99.90
2023-04-13T11:34:28.716Z,99.90
2023-04-13T11:37:19.634Z,99.90
2023-04-13T11:40:12.980Z,99.90
2023-04-13T11:43:01.128Z,99.90
2023-04-13T11:45:49.175Z,99.90
2023-04-13T11:48:37.545Z,99.90
2023-04-13T11:51:26.619Z,99.90
2023-04-13T11:54:17.109Z,99.90
2023-04-13T11:57:06.246Z,99.90
2023-04-13T11:59:54.248Z,99.90
2023-04-13T12:03:00.244Z,99.90
2023-04-13T12:05:50.027Z,99.90
2023-04-13T12:08:38.438Z,99.90
2023-04-13T12:11:42.076Z,99.90
2023-04-13T12:14:52.008Z,99.90
2023-04-13T12:17:44.004Z,99.90
2023-04-13T12:20:39.683Z,99.90
2023-04-13T12:23:28.402Z,99.90
2023-04-13T12:26:49.875Z,99.90
2023-04-13T12:29:26.384Z,99.90
2023-04-13T12:32:15.427Z,99.90
2023-04-13T12:35:03.635Z,99.90
2023-04-13T12:37:52.546Z,99.90
2023-04-13T12:40:40.819Z,99.90
2023-04-13T12:43:29.532Z,99.90
2023-04-13T12:46:20.308Z,99.90
2023-04-13T12:49:08.395Z,99.90
2023-04-13T12:51:56.411Z,99.90
2023-04-13T12:54:44.422Z,99.90
2023-04-13T12:57:32.637Z,99.90
2023-04-13T13:00:21.307Z,99.90
2023-04-13T13:03:14.218Z,99.90
2023-04-13T13:06:03.738Z,99.90
2023-04-13T13:08:51.866Z,99.90
2023-04-13T13:11:39.956Z,99.90
2023-04-13T13:14:27.969Z,99.90
2023-04-13T13:17:16.097Z,99.90
2023-04-13T13:20:06.785Z,99.90
2023-04-13T13:22:54.876Z,99.90
2023-04-13T13:25:52.734Z,99.90
2023-04-13T13:28:52.590Z,99.90
2023-04-13T13:31:41.455Z,99.90
2023-04-13T13:34:29.584Z,99.90
2023-04-13T13:37:18.992Z,99.90
2023-04-13T13:40:13.081Z,99.90
2023-04-13T13:43:01.346Z,99.90
2023-04-13T13:45:49.451Z,99.90
2023-04-13T13:48:37.554Z,99.90
2023-04-13T13:51:27.739Z,99.90
2023-04-13T13:54:17.268Z,99.90
2023-04-13T13:57:05.330Z,99.90
2023-04-13T13:59:53.360Z,99.90
2023-04-13T14:02:41.971Z,99.90
2023-04-13T14:05:30.077Z,99.90
2023-04-13T14:08:18.130Z,99.90
2023-04-13T14:11:07.592Z,99.90
2023-04-13T14:13:55.704Z,99.90
2023-04-13T14:16:43.727Z,99.90
2023-04-13T14:19:31.760Z,99.90
2023-04-13T14:22:19.788Z,99.90
2023-04-13T14:25:09.219Z,99.90
2023-04-13T14:27:58.612Z,99.90
2023-04-13T14:30:46.793Z,99.90
2023-04-13T14:33:35.206Z,99.90
2023-04-13T14:36:23.564Z,99.90
2023-04-13T14:39:11.614Z,99.90
2023-04-13T14:41:59.708Z,99.70
2023-04-13T14:44:49.110Z,98.70
2023-04-13T14:47:37.252Z,97.80
2023-04-13T14:50:25.337Z,98.00
2023-04-13T14:53:13.383Z,97.80
2023-04-13T14:56:01.460Z,98.10
2023-04-13T14:58:49.512Z,99.60
2023-04-13T15:01:38.963Z,99.90
2023-04-13T15:04:28.149Z,99.90
2023-04-13T15:07:16.286Z,99.90
2023-04-13T15:10:08.419Z,99.90
2023-04-13T15:12:56.776Z,99.90
2023-04-13T15:15:44.828Z,99.90
2023-04-13T15:18:34.180Z,99.90
2023-04-13T15:21:22.338Z,99.90
2023-04-13T15:24:10.965Z,99.90
2023-04-13T15:26:59.046Z,99.90
2023-04-13T15:29:47.085Z,99.90
2023-04-13T15:32:36.202Z,99.90
2023-04-13T15:35:26.935Z,99.90
2023-04-13T15:38:15.455Z,99.90
2023-04-13T15:41:03.452Z,99.90
2023-04-13T15:43:51.568Z,99.90
2023-04-13T15:46:40.178Z,99.90
2023-04-13T15:49:28.216Z,99.90
2023-04-13T15:52:17.594Z,99.90
2023-04-13T15:55:06.065Z,99.90
2023-04-13T15:57:55.988Z,99.90
2023-04-13T16:00:43.988Z,99.90
2023-04-13T16:03:32.420Z,99.90
2023-04-13T16:06:20.784Z,99.90
2023-04-13T16:09:10.829Z,99.90
2023-04-13T16:11:58.896Z,99.90
2023-04-13T16:14:46.904Z,99.90
2023-04-13T16:17:38.112Z,99.90
2023-04-13T16:20:28.387Z,99.80
2023-04-13T16:23:16.994Z,98.10
2023-04-13T16:26:06.479Z,97.40
2023-04-13T16:28:54.504Z,98.30
2023-04-13T16:31:44.972Z,98.80
2023-04-13T16:34:33.122Z,99.70
2023-04-13T16:37:21.561Z,99.80
2023-04-13T16:40:10.545Z,99.90
2023-04-13T16:42:59.918Z,99.90
2023-04-13T16:45:47.929Z,99.90
2023-04-13T16:48:35.941Z,99.90
2023-04-13T16:51:25.229Z,99.90
2023-04-13T16:54:14.029Z,99.90
2023-04-13T16:57:02.197Z,99.90
2023-04-13T16:59:51.527Z,99.90
2023-04-13T17:02:40.536Z,99.90
2023-04-13T17:05:28.765Z,99.90
2023-04-13T17:08:17.291Z,99.90
2023-04-13T17:11:07.174Z,99.90
2023-04-13T17:13:55.226Z,99.90
2023-04-13T17:16:44.620Z,99.90
2023-04-13T17:19:32.709Z,99.90
2023-04-13T17:22:20.713Z,99.90
2023-04-13T17:25:09.378Z,99.90
2023-04-13T17:27:57.409Z,99.90
2023-04-13T17:30:45.621Z,99.90
2023-04-13T17:33:35.014Z,99.90
2023-04-13T17:36:23.022Z,99.90
2023-04-13T17:39:11.046Z,99.90
2023-04-13T17:41:59.029Z,99.90
2023-04-13T17:44:47.232Z,99.90
2023-04-13T17:47:35.481Z,99.90
2023-04-13T17:50:24.867Z,99.90
2023-04-13T17:53:12.985Z,99.90
2023-04-13T17:56:01.104Z,99.90
2023-04-13T17:58:49.154Z,99.90
2023-04-13T18:01:37.269Z,99.90
2023-04-13T18:04:25.441Z,99.90
2023-04-13T18:07:15.422Z,99.90
2023-04-13T18:10:03.939Z,99.90
2023-04-13T18:12:51.972Z,99.90
2023-04-13T18:15:40.042Z,99.90
2023-04-13T18:18:28.087Z,99.90
2023-04-13T18:21:16.263Z,99.90
2023-04-13T18:24:05.946Z,99.90
2023-04-13T18:26:53.968Z,99.90
2023-04-13T18:29:42.308Z,99.90
2023-04-13T18:32:30.461Z,99.90
2023-04-13T18:35:18.558Z,99.90
2023-04-13T18:38:06.692Z,99.90
2023-04-13T18:40:56.061Z,99.90
2023-04-13T18:43:44.099Z,99.90
2023-04-13T18:46:32.164Z,99.90
2023-04-13T18:49:20.424Z,99.90
2023-04-13T18:52:08.828Z,99.90
2023-04-13T18:54:56.842Z,99.90
2023-04-13T18:57:46.292Z,99.90
2023-04-13T19:00:34.485Z,99.90
2023-04-13T19:03:22.776Z,99.90
2023-04-13T19:06:10.983Z,99.90
2023-04-13T19:08:59.008Z,99.90
2023-04-13T19:11:48.463Z,99.90
2023-04-13T19:14:37.861Z,99.90
2023-04-13T19:17:26.805Z,99.90
2023-04-13T19:20:15.422Z,99.90
2023-04-13T19:23:03.435Z,99.90
2023-04-13T19:25:51.480Z,99.90
2023-04-13T19:28:39.538Z,99.90
2023-04-13T19:31:28.911Z,99.90
2023-04-13T19:34:17.022Z,99.90
2023-04-13T19:37:05.368Z,99.90
2023-04-13T19:39:53.398Z,99.90
2023-04-13T19:42:42.400Z,99.90
2023-04-13T19:45:30.961Z,99.90
2023-04-13T19:48:20.313Z,99.90
2023-04-13T19:51:08.361Z,99.90
2023-04-13T19:53:57.589Z,99.90
2023-04-13T19:56:45.948Z,99.90
2023-04-13T19:59:34.031Z,99.90
2023-04-13T20:02:22.227Z,99.90
2023-04-13T20:05:12.089Z,99.90
2023-04-13T20:08:00.131Z,99.90
2023-04-13T20:10:48.199Z,99.90
2023-04-13T20:13:36.233Z,99.90
2023-04-13T20:16:26.432Z,99.90
2023-04-13T20:19:14.547Z,99.90
2023-04-13T20:22:04.481Z,99.90
2023-04-13T20:24:53.037Z,99.90
2023-04-13T20:27:42.230Z,99.90
2023-04-13T20:30:30.722Z,99.90
2023-04-13T20:33:18.742Z,99.90
2023-04-13T20:36:06.841Z,99.90
2023-04-13T20:38:59.687Z,99.90
2023-04-13T20:41:50.851Z,99.90
2023-04-13T20:44:44.917Z,99.90
2023-04-13T20:47:35.655Z,99.90
2023-04-13T20:50:26.542Z,99.90
2023-04-13T20:53:16.625Z,99.90
2023-04-13T20:56:06.436Z,99.90
2023-04-13T20:58:56.227Z,99.90
2023-04-13T21:01:44.310Z,99.90
2023-04-13T21:04:32.396Z,99.90
2023-04-13T21:07:20.405Z,99.90
2023-04-13T21:10:09.000Z,99.90
2023-04-13T21:12:58.368Z,99.90
2023-04-13T21:15:46.421Z,99.90
2023-04-13T21:18:34.478Z,99.90
2023-04-13T21:21:23.532Z,99.90
2023-04-13T21:24:11.615Z,99.90
2023-04-13T21:26:59.681Z,99.90
2023-04-13T21:29:49.036Z,99.90
2023-04-13T21:32:37.098Z,99.90
2023-04-13T21:35:25.172Z,99.90
2023-04-13T21:38:13.259Z,99.90
2023-04-13T21:41:01.268Z,99.90
2023-04-13T21:43:49.336Z,99.90
2023-04-13T21:46:38.650Z,99.90
2023-04-13T21:49:27.180Z,99.90
2023-04-13T21:52:15.460Z,99.90
2023-04-13T21:55:04.086Z,99.90
2023-04-13T21:57:52.139Z,99.90
2023-04-13T22:00:40.186Z,99.90
2023-04-13T22:03:29.804Z,99.90
2023-04-13T22:06:17.924Z,99.90
2023-04-13T22:09:06.073Z,99.90
2023-04-13T22:11:54.128Z,99.90
2023-04-13T22:14:42.126Z,99.90
2023-04-13T22:17:30.175Z,99.90
2023-04-13T22:20:19.664Z,99.90
2023-04-13T22:23:07.661Z,99.90
2023-04-13T22:25:58.685Z,99.90
2023-04-13T22:28:46.831Z,99.90
2023-04-13T22:31:34.921Z,99.90
2023-04-13T22:34:22.918Z,99.90
2023-04-13T22:37:15.125Z,99.90
2023-04-13T22:40:04.731Z,99.90
2023-04-13T22:42:53.652Z,99.90
2023-04-13T22:45:41.821Z,99.90
2023-04-13T22:48:30.116Z,99.90
2023-04-13T22:51:18.124Z,99.90
2023-04-13T22:54:07.686Z,99.90
2023-04-13T22:56:55.728Z,99.90
2023-04-13T22:59:43.866Z,99.90
2023-04-13T23:02:32.245Z,99.90
2023-04-13T23:05:20.513Z,99.90
2023-04-13T23:08:08.510Z,99.90
2023-04-13T23:10:57.917Z,99.90
2023-04-13T23:13:46.741Z,99.90
2023-04-13T23:16:35.234Z,99.90
2023-04-13T23:19:23.303Z,99.90
2023-04-13T23:22:11.327Z,99.90
2023-04-13T23:24:59.460Z,99.90
2023-04-13T23:27:48.813Z,99.90
2023-04-13T23:30:36.878Z,99.90
2023-04-13T23:33:24.873Z,99.90
2023-04-13T23:36:13.092Z,99.90
2023-04-13T23:39:01.582Z,99.90
2023-04-13T23:41:49.840Z,99.90
2023-04-13T23:44:39.205Z,99.90
2023-04-13T23:47:28.106Z,99.90
2023-04-13T23:50:17.847Z,99.90
2023-04-13T23:53:05.952Z,99.90
2023-04-13T23:55:53.949Z,99.90
2023-04-13T23:58:41.975Z,99.90
